sensor_id;sensor_type;location;lat;lon;timestamp;temperature;humidity
70928;SHT31;58587;53.034;18.576;2024-03-07T00:02:09;0.42;84.16
70928;SHT31;58587;53.034;18.576;2024-03-07T00:04:35;0.42;84.47
70928;SHT31;58587;53.034;18.576;2024-03-07T00:07:02;0.41;84.33
70928;SHT31;58587;53.034;18.576;2024-03-07T00:09:31;0.41;84.26
70928;SHT31;58587;53.034;18.576;2024-03-07T00:11:57;0.41;83.97
70928;SHT31;58587;53.034;18.576;2024-03-07T00:14:22;0.38;83.73
70928;SHT31;58587;53.034;18.576;2024-03-07T00:16:55;0.41;84.14
70928;SHT31;58587;53.034;18.576;2024-03-07T00:19:21;0.33;83.97
70928;SHT31;58587;53.034;18.576;2024-03-07T00:21:47;0.38;84.78
70928;SHT31;58587;53.034;18.576;2024-03-07T00:24:13;0.32;84.21
70928;SHT31;58587;53.034;18.576;2024-03-07T00:26:39;0.35;84.86
70928;SHT31;58587;53.034;18.576;2024-03-07T00:29:06;0.29;84.45
70928;SHT31;58587;53.034;18.576;2024-03-07T00:31:32;0.31;84.42
70928;SHT31;58587;53.034;18.576;2024-03-07T00:33:58;0.29;84.52
70928;SHT31;58587;53.034;18.576;2024-03-07T00:36:23;0.28;84.44
70928;SHT31;58587;53.034;18.576;2024-03-07T00:38:49;0.29;84.52
70928;SHT31;58587;53.034;18.576;2024-03-07T00:41:14;0.26;84.70
70928;SHT31;58587;53.034;18.576;2024-03-07T00:43:40;0.28;84.54
70928;SHT31;58587;53.034;18.576;2024-03-07T00:46:06;0.25;84.84
70928;SHT31;58587;53.034;18.576;2024-03-07T00:48:32;0.24;84.90
70928;SHT31;58587;53.034;18.576;2024-03-07T00:50:57;0.24;85.04
70928;SHT31;58587;53.034;18.576;2024-03-07T00:53:23;0.25;84.32
70928;SHT31;58587;53.034;18.576;2024-03-07T00:55:48;0.25;84.51
70928;SHT31;58587;53.034;18.576;2024-03-07T00:58:13;0.26;84.84
70928;SHT31;58587;53.034;18.576;2024-03-07T01:00:39;0.26;84.29
70928;SHT31;58587;53.034;18.576;2024-03-07T01:03:11;0.28;84.54
70928;SHT31;58587;53.034;18.576;2024-03-07T01:05:38;0.25;84.82
70928;SHT31;58587;53.034;18.576;2024-03-07T01:08:04;0.25;85.00
70928;SHT31;58587;53.034;18.576;2024-03-07T01:10:30;0.28;85.24
70928;SHT31;58587;53.034;18.576;2024-03-07T01:12:56;0.24;85.00
70928;SHT31;58587;53.034;18.576;2024-03-07T01:15:25;0.21;85.12
70928;SHT31;58587;53.034;18.576;2024-03-07T01:17:51;0.17;84.98
70928;SHT31;58587;53.034;18.576;2024-03-07T01:20:16;0.15;85.07
70928;SHT31;58587;53.034;18.576;2024-03-07T01:22:41;0.18;85.24
70928;SHT31;58587;53.034;18.576;2024-03-07T01:25:07;0.17;84.94
70928;SHT31;58587;53.034;18.576;2024-03-07T01:27:32;0.15;84.92
70928;SHT31;58587;53.034;18.576;2024-03-07T01:29:58;0.12;85.15
70928;SHT31;58587;53.034;18.576;2024-03-07T01:32:23;0.11;85.10
70928;SHT31;58587;53.034;18.576;2024-03-07T01:34:48;0.14;85.21
70928;SHT31;58587;53.034;18.576;2024-03-07T01:37:14;0.12;85.19
70928;SHT31;58587;53.034;18.576;2024-03-07T01:39:39;0.10;84.95
70928;SHT31;58587;53.034;18.576;2024-03-07T01:42:05;0.10;84.99
70928;SHT31;58587;53.034;18.576;2024-03-07T01:44:30;0.07;85.43
70928;SHT31;58587;53.034;18.576;2024-03-07T01:46:58;0.08;85.10
70928;SHT31;58587;53.034;18.576;2024-03-07T01:49:31;0.05;85.07
70928;SHT31;58587;53.034;18.576;2024-03-07T01:51:57;0.04;85.20
70928;SHT31;58587;53.034;18.576;2024-03-07T01:54:23;0.04;85.35
70928;SHT31;58587;53.034;18.576;2024-03-07T01:56:48;0.05;85.20
70928;SHT31;58587;53.034;18.576;2024-03-07T01:59:15;0.02;84.95
70928;SHT31;58587;53.034;18.576;2024-03-07T02:01:40;0.01;84.73
70928;SHT31;58587;53.034;18.576;2024-03-07T02:04:06;0.04;85.00
70928;SHT31;58587;53.034;18.576;2024-03-07T02:06:33;0.05;85.00
70928;SHT31;58587;53.034;18.576;2024-03-07T02:08:58;0.05;85.06
70928;SHT31;58587;53.034;18.576;2024-03-07T02:11:24;0.02;84.70
70928;SHT31;58587;53.034;18.576;2024-03-07T02:13:49;0.04;84.57
70928;SHT31;58587;53.034;18.576;2024-03-07T02:16:14;0.02;85.22
70928;SHT31;58587;53.034;18.576;2024-03-07T02:18:40;0.00;84.81
70928;SHT31;58587;53.034;18.576;2024-03-07T02:21:07;0.00;85.08
70928;SHT31;58587;53.034;18.576;2024-03-07T02:23:34;-0.02;85.23
70928;SHT31;58587;53.034;18.576;2024-03-07T02:25:59;-0.05;84.97
70928;SHT31;58587;53.034;18.576;2024-03-07T02:28:25;-0.05;84.91
70928;SHT31;58587;53.034;18.576;2024-03-07T02:30:50;-0.06;85.38
70928;SHT31;58587;53.034;18.576;2024-03-07T02:33:15;-0.07;84.79
70928;SHT31;58587;53.034;18.576;2024-03-07T02:35:41;-0.06;85.00
70928;SHT31;58587;53.034;18.576;2024-03-07T02:38:06;-0.09;85.08
70928;SHT31;58587;53.034;18.576;2024-03-07T02:40:31;-0.07;84.84
70928;SHT31;58587;53.034;18.576;2024-03-07T02:42:57;-0.07;85.22
70928;SHT31;58587;53.034;18.576;2024-03-07T02:45:23;-0.09;85.62
70928;SHT31;58587;53.034;18.576;2024-03-07T02:47:49;-0.12;85.36
70928;SHT31;58587;53.034;18.576;2024-03-07T02:50:14;-0.14;85.59
70928;SHT31;58587;53.034;18.576;2024-03-07T02:52:40;-0.14;85.83
70928;SHT31;58587;53.034;18.576;2024-03-07T02:55:05;-0.17;85.63
70928;SHT31;58587;53.034;18.576;2024-03-07T02:57:31;-0.17;85.31
70928;SHT31;58587;53.034;18.576;2024-03-07T02:59:57;-0.17;85.72
70928;SHT31;58587;53.034;18.576;2024-03-07T03:02:22;-0.19;85.95
70928;SHT31;58587;53.034;18.576;2024-03-07T03:04:47;-0.23;85.71
70928;SHT31;58587;53.034;18.576;2024-03-07T03:07:13;-0.24;85.98
70928;SHT31;58587;53.034;18.576;2024-03-07T03:09:38;-0.27;85.58
70928;SHT31;58587;53.034;18.576;2024-03-07T03:12:08;-0.29;85.44
70928;SHT31;58587;53.034;18.576;2024-03-07T03:14:34;-0.26;85.89
70928;SHT31;58587;53.034;18.576;2024-03-07T03:17:00;-0.27;85.30
70928;SHT31;58587;53.034;18.576;2024-03-07T03:19:25;-0.29;85.51
70928;SHT31;58587;53.034;18.576;2024-03-07T03:21:51;-0.26;85.51
70928;SHT31;58587;53.034;18.576;2024-03-07T03:24:17;-0.29;85.64
70928;SHT31;58587;53.034;18.576;2024-03-07T03:26:43;-0.27;85.78
70928;SHT31;58587;53.034;18.576;2024-03-07T03:29:09;-0.31;85.94
70928;SHT31;58587;53.034;18.576;2024-03-07T03:31:36;-0.29;85.49
70928;SHT31;58587;53.034;18.576;2024-03-07T03:34:02;-0.27;85.93
70928;SHT31;58587;53.034;18.576;2024-03-07T03:36:27;-0.31;86.13
70928;SHT31;58587;53.034;18.576;2024-03-07T03:38:53;-0.34;86.00
70928;SHT31;58587;53.034;18.576;2024-03-07T03:41:18;-0.36;86.24
70928;SHT31;58587;53.034;18.576;2024-03-07T03:43:44;-0.40;85.92
70928;SHT31;58587;53.034;18.576;2024-03-07T03:46:10;-0.40;86.38
70928;SHT31;58587;53.034;18.576;2024-03-07T03:48:37;-0.41;86.42
70928;SHT31;58587;53.034;18.576;2024-03-07T03:51:02;-0.43;85.99
70928;SHT31;58587;53.034;18.576;2024-03-07T03:53:28;-0.43;86.55
70928;SHT31;58587;53.034;18.576;2024-03-07T03:55:53;-0.45;86.32
70928;SHT31;58587;53.034;18.576;2024-03-07T03:58:18;-0.47;86.12
70928;SHT31;58587;53.034;18.576;2024-03-07T04:00:44;-0.49;86.63
70928;SHT31;58587;53.034;18.576;2024-03-07T04:03:09;-0.50;86.92
70928;SHT31;58587;53.034;18.576;2024-03-07T04:05:34;-0.54;86.92
70928;SHT31;58587;53.034;18.576;2024-03-07T04:08:00;-0.53;86.86
70928;SHT31;58587;53.034;18.576;2024-03-07T04:10:25;-0.50;86.93
70928;SHT31;58587;53.034;18.576;2024-03-07T04:12:51;-0.53;86.83
70928;SHT31;58587;53.034;18.576;2024-03-07T04:15:16;-0.53;86.85
70928;SHT31;58587;53.034;18.576;2024-03-07T04:17:44;-0.56;87.10
70928;SHT31;58587;53.034;18.576;2024-03-07T04:20:11;-0.56;87.11
70928;SHT31;58587;53.034;18.576;2024-03-07T04:22:38;-0.56;86.78
70928;SHT31;58587;53.034;18.576;2024-03-07T04:25:04;-0.58;86.89
70928;SHT31;58587;53.034;18.576;2024-03-07T04:27:32;-0.63;87.08
70928;SHT31;58587;53.034;18.576;2024-03-07T04:29:57;-0.60;87.22
70928;SHT31;58587;53.034;18.576;2024-03-07T04:32:23;-0.61;86.72
70928;SHT31;58587;53.034;18.576;2024-03-07T04:34:48;-0.63;87.06
70928;SHT31;58587;53.034;18.576;2024-03-07T04:37:14;-0.63;87.25
70928;SHT31;58587;53.034;18.576;2024-03-07T04:39:39;-0.63;86.79
70928;SHT31;58587;53.034;18.576;2024-03-07T04:42:06;-0.64;86.97
70928;SHT31;58587;53.034;18.576;2024-03-07T04:44:33;-0.68;87.12
70928;SHT31;58587;53.034;18.576;2024-03-07T04:46:58;-0.65;87.35
70928;SHT31;58587;53.034;18.576;2024-03-07T04:49:26;-0.65;87.44
70928;SHT31;58587;53.034;18.576;2024-03-07T04:51:53;-0.70;87.43
70928;SHT31;58587;53.034;18.576;2024-03-07T04:54:19;-0.68;86.91
70928;SHT31;58587;53.034;18.576;2024-03-07T04:56:45;-0.68;87.14
70928;SHT31;58587;53.034;18.576;2024-03-07T04:59:11;-0.68;87.47
70928;SHT31;58587;53.034;18.576;2024-03-07T05:01:37;-0.68;87.44
70928;SHT31;58587;53.034;18.576;2024-03-07T05:04:03;-0.70;87.51
70928;SHT31;58587;53.034;18.576;2024-03-07T05:06:28;-0.71;87.30
70928;SHT31;58587;53.034;18.576;2024-03-07T05:08:54;-0.68;87.42
70928;SHT31;58587;53.034;18.576;2024-03-07T05:11:19;-0.73;87.55
70928;SHT31;58587;53.034;18.576;2024-03-07T05:13:45;-0.71;87.33
70928;SHT31;58587;53.034;18.576;2024-03-07T05:16:10;-0.68;87.58
70928;SHT31;58587;53.034;18.576;2024-03-07T05:18:35;-0.71;87.43
70928;SHT31;58587;53.034;18.576;2024-03-07T05:21:01;-0.73;87.59
70928;SHT31;58587;53.034;18.576;2024-03-07T05:23:46;-0.70;87.59
70928;SHT31;58587;53.034;18.576;2024-03-07T05:26:11;-0.71;87.40
70928;SHT31;58587;53.034;18.576;2024-03-07T05:28:38;-0.68;87.32
70928;SHT31;58587;53.034;18.576;2024-03-07T05:31:04;-0.71;87.02
70928;SHT31;58587;53.034;18.576;2024-03-07T05:33:30;-0.70;87.22
70928;SHT31;58587;53.034;18.576;2024-03-07T05:35:56;-0.71;87.59
70928;SHT31;58587;53.034;18.576;2024-03-07T05:38:39;-0.68;87.01
70928;SHT31;58587;53.034;18.576;2024-03-07T05:41:04;-0.67;87.43
70928;SHT31;58587;53.034;18.576;2024-03-07T05:43:30;-0.63;87.69
70928;SHT31;58587;53.034;18.576;2024-03-07T05:45:57;-0.64;87.24
70928;SHT31;58587;53.034;18.576;2024-03-07T05:48:25;-0.61;87.00
70928;SHT31;58587;53.034;18.576;2024-03-07T05:50:51;-0.58;87.43
70928;SHT31;58587;53.034;18.576;2024-03-07T05:53:16;-0.57;87.16
70928;SHT31;58587;53.034;18.576;2024-03-07T05:55:43;-0.56;86.99
70928;SHT31;58587;53.034;18.576;2024-03-07T05:58:08;-0.54;86.95
70928;SHT31;58587;53.034;18.576;2024-03-07T06:00:35;-0.51;86.85
70928;SHT31;58587;53.034;18.576;2024-03-07T06:03:04;-0.47;86.69
70928;SHT31;58587;53.034;18.576;2024-03-07T06:05:30;-0.43;86.94
70928;SHT31;58587;53.034;18.576;2024-03-07T06:07:55;-0.40;87.00
70928;SHT31;58587;53.034;18.576;2024-03-07T06:10:21;-0.37;86.73
70928;SHT31;58587;53.034;18.576;2024-03-07T06:12:50;-0.30;86.94
70928;SHT31;58587;53.034;18.576;2024-03-07T06:15:15;-0.24;86.60
70928;SHT31;58587;53.034;18.576;2024-03-07T06:17:40;-0.23;86.44
70928;SHT31;58587;53.034;18.576;2024-03-07T06:20:06;-0.17;86.64
70928;SHT31;58587;53.034;18.576;2024-03-07T06:22:46;-0.12;86.55
70928;SHT31;58587;53.034;18.576;2024-03-07T06:25:11;-0.07;86.16
70928;SHT31;58587;53.034;18.576;2024-03-07T06:27:44;0.02;85.64
70928;SHT31;58587;53.034;18.576;2024-03-07T06:30:14;0.05;85.41
70928;SHT31;58587;53.034;18.576;2024-03-07T06:32:41;0.18;85.83
70928;SHT31;58587;53.034;18.576;2024-03-07T06:35:07;0.24;85.36
70928;SHT31;58587;53.034;18.576;2024-03-07T06:37:32;0.28;84.54
70928;SHT31;58587;53.034;18.576;2024-03-07T06:39:58;0.32;84.90
70928;SHT31;58587;53.034;18.576;2024-03-07T06:42:23;0.40;84.47
70928;SHT31;58587;53.034;18.576;2024-03-07T06:44:48;0.45;84.81
70928;SHT31;58587;53.034;18.576;2024-03-07T06:47:14;0.55;84.45
70928;SHT31;58587;53.034;18.576;2024-03-07T06:49:39;0.62;84.27
70928;SHT31;58587;53.034;18.576;2024-03-07T06:52:05;0.68;84.10
70928;SHT31;58587;53.034;18.576;2024-03-07T06:54:31;0.75;83.64
70928;SHT31;58587;53.034;18.576;2024-03-07T06:56:56;0.83;83.49
70928;SHT31;58587;53.034;18.576;2024-03-07T06:59:22;0.92;82.51
70928;SHT31;58587;53.034;18.576;2024-03-07T07:01:47;1.00;82.86
70928;SHT31;58587;53.034;18.576;2024-03-07T07:04:12;1.08;82.57
70928;SHT31;58587;53.034;18.576;2024-03-07T07:06:40;1.10;81.87
70928;SHT31;58587;53.034;18.576;2024-03-07T07:09:08;1.19;82.33
70928;SHT31;58587;53.034;18.576;2024-03-07T07:11:34;1.26;81.80
70928;SHT31;58587;53.034;18.576;2024-03-07T07:14:00;1.36;81.06
70928;SHT31;58587;53.034;18.576;2024-03-07T07:16:27;1.43;81.20
70928;SHT31;58587;53.034;18.576;2024-03-07T07:18:55;1.54;80.74
70928;SHT31;58587;53.034;18.576;2024-03-07T07:21:21;1.61;80.27
70928;SHT31;58587;53.034;18.576;2024-03-07T07:23:46;1.69;80.09
70928;SHT31;58587;53.034;18.576;2024-03-07T07:26:12;1.77;79.95
70928;SHT31;58587;53.034;18.576;2024-03-07T07:28:37;1.88;79.51
70928;SHT31;58587;53.034;18.576;2024-03-07T07:31:04;1.92;79.85
70928;SHT31;58587;53.034;18.576;2024-03-07T07:33:29;1.97;78.81
70928;SHT31;58587;53.034;18.576;2024-03-07T07:35:56;2.11;78.98
70928;SHT31;58587;53.034;18.576;2024-03-07T07:38:22;2.19;78.48
70928;SHT31;58587;53.034;18.576;2024-03-07T07:40:47;2.30;77.95
70928;SHT31;58587;53.034;18.576;2024-03-07T07:43:14;2.36;77.61
70928;SHT31;58587;53.034;18.576;2024-03-07T07:45:40;2.42;76.95
70928;SHT31;58587;53.034;18.576;2024-03-07T07:48:05;2.52;75.90
70928;SHT31;58587;53.034;18.576;2024-03-07T07:50:31;2.56;75.72
70928;SHT31;58587;53.034;18.576;2024-03-07T07:52:59;2.63;75.25
70928;SHT31;58587;53.034;18.576;2024-03-07T07:55:28;2.68;74.71
70928;SHT31;58587;53.034;18.576;2024-03-07T07:57:55;2.79;76.05
70928;SHT31;58587;53.034;18.576;2024-03-07T08:00:22;2.88;74.87
70928;SHT31;58587;53.034;18.576;2024-03-07T08:02:53;2.97;74.33
70928;SHT31;58587;53.034;18.576;2024-03-07T08:05:20;3.04;73.17
70928;SHT31;58587;53.034;18.576;2024-03-07T08:07:52;3.12;73.24
70928;SHT31;58587;53.034;18.576;2024-03-07T08:10:27;3.19;73.71
70928;SHT31;58587;53.034;18.576;2024-03-07T08:12:57;3.29;73.65
70928;SHT31;58587;53.034;18.576;2024-03-07T08:15:25;3.35;73.91
70928;SHT31;58587;53.034;18.576;2024-03-07T08:17:51;3.48;72.21
70928;SHT31;58587;53.034;18.576;2024-03-07T08:20:19;3.56;72.00
70928;SHT31;58587;53.034;18.576;2024-03-07T08:22:46;3.62;70.85
70928;SHT31;58587;53.034;18.576;2024-03-07T08:25:13;3.72;71.01
70928;SHT31;58587;53.034;18.576;2024-03-07T08:27:39;3.86;70.56
70928;SHT31;58587;53.034;18.576;2024-03-07T08:30:07;3.91;71.53
70928;SHT31;58587;53.034;18.576;2024-03-07T08:32:36;3.97;69.60
70928;SHT31;58587;53.034;18.576;2024-03-07T08:35:05;4.07;70.31
70928;SHT31;58587;53.034;18.576;2024-03-07T08:37:42;4.14;69.65
70928;SHT31;58587;53.034;18.576;2024-03-07T08:40:09;4.27;68.90
70928;SHT31;58587;53.034;18.576;2024-03-07T08:42:40;4.36;69.21
70928;SHT31;58587;53.034;18.576;2024-03-07T08:45:07;4.41;69.93
70928;SHT31;58587;53.034;18.576;2024-03-07T08:47:36;4.53;68.24
70928;SHT31;58587;53.034;18.576;2024-03-07T08:50:02;4.60;68.99
70928;SHT31;58587;53.034;18.576;2024-03-07T08:52:31;4.69;67.76
70928;SHT31;58587;53.034;18.576;2024-03-07T08:54:57;4.72;65.09
70928;SHT31;58587;53.034;18.576;2024-03-07T08:57:23;4.72;65.69
70928;SHT31;58587;53.034;18.576;2024-03-07T08:59:48;4.82;66.93
70928;SHT31;58587;53.034;18.576;2024-03-07T09:02:14;4.91;64.27
70928;SHT31;58587;53.034;18.576;2024-03-07T09:04:40;4.98;65.56
70928;SHT31;58587;53.034;18.576;2024-03-07T09:07:06;5.02;64.10
70928;SHT31;58587;53.034;18.576;2024-03-07T09:09:32;5.06;65.36
70928;SHT31;58587;53.034;18.576;2024-03-07T09:11:58;5.11;64.55
70928;SHT31;58587;53.034;18.576;2024-03-07T09:14:23;5.23;63.80
70928;SHT31;58587;53.034;18.576;2024-03-07T09:16:49;5.30;64.31
70928;SHT31;58587;53.034;18.576;2024-03-07T09:19:15;5.43;64.18
70928;SHT31;58587;53.034;18.576;2024-03-07T09:21:45;5.49;63.81
70928;SHT31;58587;53.034;18.576;2024-03-07T09:24:11;5.44;62.49
70928;SHT31;58587;53.034;18.576;2024-03-07T09:26:37;5.50;62.29
70928;SHT31;58587;53.034;18.576;2024-03-07T09:29:02;5.47;61.99
70928;SHT31;58587;53.034;18.576;2024-03-07T09:31:33;5.63;64.08
70928;SHT31;58587;53.034;18.576;2024-03-07T09:33:59;5.73;61.66
70928;SHT31;58587;53.034;18.576;2024-03-07T09:36:25;5.87;63.17
70928;SHT31;58587;53.034;18.576;2024-03-07T09:38:50;5.90;62.87
70928;SHT31;58587;53.034;18.576;2024-03-07T09:41:16;6.07;62.67
70928;SHT31;58587;53.034;18.576;2024-03-07T09:43:43;6.05;60.71
70928;SHT31;58587;53.034;18.576;2024-03-07T09:46:10;6.24;62.55
70928;SHT31;58587;53.034;18.576;2024-03-07T09:48:35;6.39;62.99
70928;SHT31;58587;53.034;18.576;2024-03-07T09:51:02;6.42;60.30
70928;SHT31;58587;53.034;18.576;2024-03-07T09:53:29;6.45;61.58
70928;SHT31;58587;53.034;18.576;2024-03-07T09:55:56;6.63;60.69
70928;SHT31;58587;53.034;18.576;2024-03-07T09:58:23;6.63;60.50
70928;SHT31;58587;53.034;18.576;2024-03-07T10:00:51;6.59;58.18
70928;SHT31;58587;53.034;18.576;2024-03-07T10:03:20;6.69;59.88
70928;SHT31;58587;53.034;18.576;2024-03-07T10:05:47;6.87;60.57
70928;SHT31;58587;53.034;18.576;2024-03-07T10:08:12;6.99;60.78
70928;SHT31;58587;53.034;18.576;2024-03-07T10:10:39;7.00;59.20
70928;SHT31;58587;53.034;18.576;2024-03-07T10:13:04;7.10;59.14
70928;SHT31;58587;53.034;18.576;2024-03-07T10:15:31;7.17;57.04
70928;SHT31;58587;53.034;18.576;2024-03-07T10:17:58;7.16;58.05
70928;SHT31;58587;53.034;18.576;2024-03-07T10:20:25;7.06;55.51
70928;SHT31;58587;53.034;18.576;2024-03-07T10:22:50;6.96;55.98
70928;SHT31;58587;53.034;18.576;2024-03-07T10:25:20;7.26;59.01
70928;SHT31;58587;53.034;18.576;2024-03-07T10:27:53;7.51;59.07
70928;SHT31;58587;53.034;18.576;2024-03-07T10:30:19;7.37;55.41
70928;SHT31;58587;53.034;18.576;2024-03-07T10:32:48;7.58;58.55
70928;SHT31;58587;53.034;18.576;2024-03-07T10:35:20;7.77;58.04
70928;SHT31;58587;53.034;18.576;2024-03-07T10:37:46;7.98;57.47
70928;SHT31;58587;53.034;18.576;2024-03-07T10:40:13;8.17;57.85
70928;SHT31;58587;53.034;18.576;2024-03-07T10:42:46;8.14;56.78
70928;SHT31;58587;53.034;18.576;2024-03-07T10:45:20;8.19;55.96
70928;SHT31;58587;53.034;18.576;2024-03-07T10:47:51;8.14;56.34
70928;SHT31;58587;53.034;18.576;2024-03-07T10:50:48;8.39;55.17
70928;SHT31;58587;53.034;18.576;2024-03-07T10:53:35;8.07;53.46
70928;SHT31;58587;53.034;18.576;2024-03-07T10:58:57;8.30;54.38
70928;SHT31;58587;53.034;18.576;2024-03-07T11:01:26;8.57;55.55
70928;SHT31;58587;53.034;18.576;2024-03-07T11:03:52;8.61;53.30
70928;SHT31;58587;53.034;18.576;2024-03-07T11:06:18;8.53;52.60
70928;SHT31;58587;53.034;18.576;2024-03-07T11:08:43;8.61;55.08
70928;SHT31;58587;53.034;18.576;2024-03-07T11:11:11;8.81;54.13
70928;SHT31;58587;53.034;18.576;2024-03-07T11:13:37;9.12;55.17
70928;SHT31;58587;53.034;18.576;2024-03-07T11:16:04;9.11;54.27
70928;SHT31;58587;53.034;18.576;2024-03-07T11:18:30;9.43;53.43
70928;SHT31;58587;53.034;18.576;2024-03-07T11:20:56;9.58;53.02
70928;SHT31;58587;53.034;18.576;2024-03-07T11:25:55;9.63;53.17
70928;SHT31;58587;53.034;18.576;2024-03-07T11:28:28;9.60;52.48
70928;SHT31;58587;53.034;18.576;2024-03-07T11:30:54;9.73;52.23
70928;SHT31;58587;53.034;18.576;2024-03-07T11:33:20;9.76;50.22
70928;SHT31;58587;53.034;18.576;2024-03-07T11:35:49;9.94;51.34
70928;SHT31;58587;53.034;18.576;2024-03-07T11:38:14;10.02;50.97
70928;SHT31;58587;53.034;18.576;2024-03-07T11:43:05;10.16;49.88
70928;SHT31;58587;53.034;18.576;2024-03-07T11:45:31;10.25;49.95
70928;SHT31;58587;53.034;18.576;2024-03-07T11:48:10;10.29;50.46
70928;SHT31;58587;53.034;18.576;2024-03-07T11:50:40;10.54;49.86
70928;SHT31;58587;53.034;18.576;2024-03-07T11:53:07;10.99;50.55
70928;SHT31;58587;53.034;18.576;2024-03-07T11:55:36;11.08;48.97
70928;SHT31;58587;53.034;18.576;2024-03-07T11:58:21;11.16;49.45
70928;SHT31;58587;53.034;18.576;2024-03-07T12:00:47;11.74;48.23
70928;SHT31;58587;53.034;18.576;2024-03-07T12:03:13;12.05;48.00
70928;SHT31;58587;53.034;18.576;2024-03-07T12:05:45;12.32;46.26
70928;SHT31;58587;53.034;18.576;2024-03-07T12:08:11;12.07;46.17
70928;SHT31;58587;53.034;18.576;2024-03-07T12:10:37;12.58;45.12
70928;SHT31;58587;53.034;18.576;2024-03-07T12:13:05;13.32;45.21
70928;SHT31;58587;53.034;18.576;2024-03-07T12:15:30;13.54;43.03
70928;SHT31;58587;53.034;18.576;2024-03-07T12:17:57;14.60;40.63
70928;SHT31;58587;53.034;18.576;2024-03-07T12:20:23;15.16;40.92
70928;SHT31;58587;53.034;18.576;2024-03-07T12:23:00;15.35;38.73
70928;SHT31;58587;53.034;18.576;2024-03-07T12:25:28;15.11;35.85
70928;SHT31;58587;53.034;18.576;2024-03-07T12:28:01;16.19;38.58
70928;SHT31;58587;53.034;18.576;2024-03-07T12:30:35;16.48;37.46
70928;SHT31;58587;53.034;18.576;2024-03-07T12:33:01;16.91;35.88
70928;SHT31;58587;53.034;18.576;2024-03-07T12:35:33;17.74;33.72
70928;SHT31;58587;53.034;18.576;2024-03-07T12:37:58;17.95;34.23
70928;SHT31;58587;53.034;18.576;2024-03-07T12:40:25;18.78;34.84
70928;SHT31;58587;53.034;18.576;2024-03-07T12:42:54;19.45;33.99
70928;SHT31;58587;53.034;18.576;2024-03-07T12:45:19;19.79;32.32
70928;SHT31;58587;53.034;18.576;2024-03-07T12:47:48;19.45;30.61
70928;SHT31;58587;53.034;18.576;2024-03-07T12:50:19;19.77;30.52
70928;SHT31;58587;53.034;18.576;2024-03-07T12:52:48;20.17;31.18
70928;SHT31;58587;53.034;18.576;2024-03-07T12:55:17;20.26;30.11
70928;SHT31;58587;53.034;18.576;2024-03-07T12:57:49;20.06;30.09
70928;SHT31;58587;53.034;18.576;2024-03-07T13:00:16;20.06;30.90
70928;SHT31;58587;53.034;18.576;2024-03-07T13:02:48;20.84;28.66
70928;SHT31;58587;53.034;18.576;2024-03-07T13:05:14;21.26;29.24
70928;SHT31;58587;53.034;18.576;2024-03-07T13:07:48;21.23;28.28
70928;SHT31;58587;53.034;18.576;2024-03-07T13:10:15;21.00;29.39
70928;SHT31;58587;53.034;18.576;2024-03-07T13:12:42;21.91;28.12
70928;SHT31;58587;53.034;18.576;2024-03-07T13:15:09;22.81;27.01
70928;SHT31;58587;53.034;18.576;2024-03-07T13:17:36;22.37;27.59
70928;SHT31;58587;53.034;18.576;2024-03-07T13:20:01;21.39;28.36
70928;SHT31;58587;53.034;18.576;2024-03-07T13:22:26;21.70;27.16
70928;SHT31;58587;53.034;18.576;2024-03-07T13:24:52;22.03;28.02
70928;SHT31;58587;53.034;18.576;2024-03-07T13:27:18;21.70;27.31
70928;SHT31;58587;53.034;18.576;2024-03-07T13:29:50;21.81;28.05
70928;SHT31;58587;53.034;18.576;2024-03-07T13:32:16;22.04;27.52
70928;SHT31;58587;53.034;18.576;2024-03-07T13:34:42;22.37;28.22
70928;SHT31;58587;53.034;18.576;2024-03-07T13:37:07;22.35;27.52
70928;SHT31;58587;53.034;18.576;2024-03-07T13:39:35;22.37;27.11
70928;SHT31;58587;53.034;18.576;2024-03-07T13:42:01;21.52;27.31
70928;SHT31;58587;53.034;18.576;2024-03-07T13:44:26;21.20;28.07
70928;SHT31;58587;53.034;18.576;2024-03-07T13:46:53;21.28;27.81
70928;SHT31;58587;53.034;18.576;2024-03-07T13:49:19;19.83;28.84
70928;SHT31;58587;53.034;18.576;2024-03-07T13:51:48;20.30;29.12
70928;SHT31;58587;53.034;18.576;2024-03-07T13:54:21;20.71;28.68
70928;SHT31;58587;53.034;18.576;2024-03-07T13:57:39;20.84;29.81
70928;SHT31;58587;53.034;18.576;2024-03-07T14:03:26;20.94;28.89
70928;SHT31;58587;53.034;18.576;2024-03-07T14:05:59;20.98;28.52
70928;SHT31;58587;53.034;18.576;2024-03-07T14:14:45;19.51;29.71
70928;SHT31;58587;53.034;18.576;2024-03-07T14:17:52;19.52;29.54
70928;SHT31;58587;53.034;18.576;2024-03-07T14:28:54;20.04;29.84
70928;SHT31;58587;53.034;18.576;2024-03-07T14:31:23;20.23;29.29
70928;SHT31;58587;53.034;18.576;2024-03-07T14:34:02;19.46;29.96
70928;SHT31;58587;53.034;18.576;2024-03-07T14:36:43;19.46;30.62
70928;SHT31;58587;53.034;18.576;2024-03-07T14:39:10;18.97;32.08
70928;SHT31;58587;53.034;18.576;2024-03-07T14:42:00;18.40;31.00
70928;SHT31;58587;53.034;18.576;2024-03-07T14:44:27;17.46;32.24
70928;SHT31;58587;53.034;18.576;2024-03-07T14:46:57;16.97;33.26
70928;SHT31;58587;53.034;18.576;2024-03-07T14:49:23;16.22;34.02
70928;SHT31;58587;53.034;18.576;2024-03-07T14:51:49;15.64;35.34
70928;SHT31;58587;53.034;18.576;2024-03-07T14:54:19;14.99;36.08
70928;SHT31;58587;53.034;18.576;2024-03-07T14:56:44;14.68;36.19
70928;SHT31;58587;53.034;18.576;2024-03-07T14:59:10;13.87;37.77
70928;SHT31;58587;53.034;18.576;2024-03-07T15:01:35;13.50;40.19
70928;SHT31;58587;53.034;18.576;2024-03-07T15:04:01;13.15;40.85
70928;SHT31;58587;53.034;18.576;2024-03-07T15:06:28;12.52;40.03
70928;SHT31;58587;53.034;18.576;2024-03-07T15:08:57;12.21;41.18
70928;SHT31;58587;53.034;18.576;2024-03-07T15:11:28;11.73;42.08
70928;SHT31;58587;53.034;18.576;2024-03-07T15:13:54;11.69;44.41
70928;SHT31;58587;53.034;18.576;2024-03-07T15:16:20;11.62;43.46
70928;SHT31;58587;53.034;18.576;2024-03-07T15:18:45;11.44;43.45
70928;SHT31;58587;53.034;18.576;2024-03-07T15:21:11;11.60;43.50
70928;SHT31;58587;53.034;18.576;2024-03-07T15:23:41;11.57;44.22
70928;SHT31;58587;53.034;18.576;2024-03-07T15:26:07;11.15;44.99
70928;SHT31;58587;53.034;18.576;2024-03-07T15:28:32;10.76;43.37
70928;SHT31;58587;53.034;18.576;2024-03-07T15:30:57;10.50;45.32
70928;SHT31;58587;53.034;18.576;2024-03-07T15:33:25;10.17;45.99
70928;SHT31;58587;53.034;18.576;2024-03-07T15:35:50;10.00;45.77
70928;SHT31;58587;53.034;18.576;2024-03-07T15:38:17;9.70;45.96
70928;SHT31;58587;53.034;18.576;2024-03-07T15:40:44;9.39;48.53
70928;SHT31;58587;53.034;18.576;2024-03-07T15:43:09;9.27;49.56
70928;SHT31;58587;53.034;18.576;2024-03-07T15:45:35;8.97;48.99
70928;SHT31;58587;53.034;18.576;2024-03-07T15:48:01;8.81;50.33
70928;SHT31;58587;53.034;18.576;2024-03-07T15:50:36;8.56;50.77